sensor_id;sensor_type;location;lat;lon;timestamp;P1;durP1;ratioP1;P2;durP2;ratioP2
66521;SDS011;53349;53.538;8.584;2023-03-11T00:00:21;3.57;;;0.77;;
66521;SDS011;53349;53.538;8.584;2023-03-11T00:02:49;4.03;;;0.80;;
66521;SDS011;53349;53.538;8.584;2023-03-11T00:05:20;3.13;;;1.10;;
66521;SDS011;53349;53.538;8.584;2023-03-11T00:07:47;5.32;;;0.80;;
66521;SDS011;53349;53.538;8.584;2023-03-11T00:10:15;4.60;;;0.90;;
66521;SDS011;53349;53.538;8.584;2023-03-11T00:12:44;3.15;;;0.85;;
66521;SDS011;53349;53.538;8.584;2023-03-11T00:15:10;5.27;;;0.73;;
66521;SDS011;53349;53.538;8.584;2023-03-11T00:17:36;4.20;;;0.80;;
66521;SDS011;53349;53.538;8.584;2023-03-11T00:20:02;5.53;;;0.90;;
66521;SDS011;53349;53.538;8.584;2023-03-11T00:22:30;5.53;;;1.00;;
66521;SDS011;53349;53.538;8.584;2023-03-11T00:24:56;7.10;;;1.00;;
66521;SDS011;53349;53.538;8.584;2023-03-11T00:27:22;4.60;;;0.77;;
66521;SDS011;53349;53.538;8.584;2023-03-11T00:29:49;4.60;;;0.90;;
66521;SDS011;53349;53.538;8.584;2023-03-11T00:32:15;5.40;;;1.03;;
66521;SDS011;53349;53.538;8.584;2023-03-11T00:34:42;9.35;;;1.02;;
66521;SDS011;53349;53.538;8.584;2023-03-11T00:37:08;3.20;;;0.80;;
66521;SDS011;53349;53.538;8.584;2023-03-11T00:39:36;4.20;;;0.98;;
66521;SDS011;53349;53.538;8.584;2023-03-11T00:42:01;4.93;;;1.02;;
66521;SDS011;53349;53.538;8.584;2023-03-11T00:44:27;2.17;;;0.77;;
66521;SDS011;53349;53.538;8.584;2023-03-11T00:46:52;4.43;;;1.00;;
66521;SDS011;53349;53.538;8.584;2023-03-11T00:49:17;2.88;;;1.02;;
66521;SDS011;53349;53.538;8.584;2023-03-11T00:51:44;3.73;;;1.03;;
66521;SDS011;53349;53.538;8.584;2023-03-11T00:54:10;2.95;;;1.20;;
66521;SDS011;53349;53.538;8.584;2023-03-11T00:56:36;6.27;;;1.20;;
66521;SDS011;53349;53.538;8.584;2023-03-11T00:59:03;4.03;;;1.30;;
66521;SDS011;53349;53.538;8.584;2023-03-11T01:01:28;3.80;;;0.90;;
66521;SDS011;53349;53.538;8.584;2023-03-11T01:03:55;5.20;;;1.03;;
66521;SDS011;53349;53.538;8.584;2023-03-11T01:06:21;4.97;;;1.10;;
66521;SDS011;53349;53.538;8.584;2023-03-11T01:08:46;5.30;;;1.10;;
66521;SDS011;53349;53.538;8.584;2023-03-11T01:11:12;4.50;;;1.40;;
66521;SDS011;53349;53.538;8.584;2023-03-11T01:13:37;3.00;;;1.30;;
66521;SDS011;53349;53.538;8.584;2023-03-11T01:16:03;3.23;;;1.30;;
66521;SDS011;53349;53.538;8.584;2023-03-11T01:18:28;5.85;;;1.15;;
66521;SDS011;53349;53.538;8.584;2023-03-11T01:20:54;3.22;;;1.20;;
66521;SDS011;53349;53.538;8.584;2023-03-11T01:23:21;4.43;;;1.20;;
66521;SDS011;53349;53.538;8.584;2023-03-11T01:25:46;3.83;;;1.00;;
66521;SDS011;53349;53.538;8.584;2023-03-11T01:28:12;7.03;;;1.20;;
66521;SDS011;53349;53.538;8.584;2023-03-11T01:30:39;4.43;;;1.13;;
66521;SDS011;53349;53.538;8.584;2023-03-11T01:33:06;5.72;;;1.05;;
66521;SDS011;53349;53.538;8.584;2023-03-11T01:35:34;5.53;;;1.40;;
66521;SDS011;53349;53.538;8.584;2023-03-11T01:38:00;4.05;;;1.30;;
66521;SDS011;53349;53.538;8.584;2023-03-11T01:42:52;3.92;;;1.17;;
66521;SDS011;53349;53.538;8.584;2023-03-11T01:47:53;3.67;;;1.52;;
66521;SDS011;53349;53.538;8.584;2023-03-11T01:50:18;5.10;;;1.52;;
66521;SDS011;53349;53.538;8.584;2023-03-11T01:52:46;3.30;;;1.30;;
66521;SDS011;53349;53.538;8.584;2023-03-11T01:55:12;4.85;;;1.30;;
66521;SDS011;53349;53.538;8.584;2023-03-11T01:57:39;3.43;;;1.30;;
66521;SDS011;53349;53.538;8.584;2023-03-11T02:00:08;5.20;;;1.20;;
66521;SDS011;53349;53.538;8.584;2023-03-11T02:02:40;3.83;;;1.10;;
66521;SDS011;53349;53.538;8.584;2023-03-11T02:05:09;4.90;;;1.20;;
66521;SDS011;53349;53.538;8.584;2023-03-11T02:07:36;4.57;;;1.00;;
66521;SDS011;53349;53.538;8.584;2023-03-11T02:10:03;3.10;;;0.80;;
66521;SDS011;53349;53.538;8.584;2023-03-11T02:12:29;3.17;;;0.90;;
66521;SDS011;53349;53.538;8.584;2023-03-11T02:14:59;4.75;;;1.27;;
66521;SDS011;53349;53.538;8.584;2023-03-11T02:17:25;4.43;;;0.80;;
66521;SDS011;53349;53.538;8.584;2023-03-11T02:22:51;3.45;;;0.70;;
66521;SDS011;53349;53.538;8.584;2023-03-11T02:25:34;2.85;;;0.70;;
66521;SDS011;53349;53.538;8.584;2023-03-11T02:28:07;3.25;;;0.85;;
66521;SDS011;53349;53.538;8.584;2023-03-11T02:30:38;5.00;;;0.80;;
66521;SDS011;53349;53.538;8.584;2023-03-11T02:33:05;4.63;;;0.82;;
66521;SDS011;53349;53.538;8.584;2023-03-11T02:35:33;3.38;;;0.90;;
66521;SDS011;53349;53.538;8.584;2023-03-11T02:37:58;2.43;;;0.67;;
66521;SDS011;53349;53.538;8.584;2023-03-11T02:42:49;5.45;;;1.02;;
66521;SDS011;53349;53.538;8.584;2023-03-11T02:45:19;2.83;;;1.20;;
66521;SDS011;53349;53.538;8.584;2023-03-11T02:47:47;3.63;;;0.70;;
66521;SDS011;53349;53.538;8.584;2023-03-11T02:50:15;4.90;;;0.88;;
66521;SDS011;53349;53.538;8.584;2023-03-11T02:52:43;2.78;;;0.65;;
66521;SDS011;53349;53.538;8.584;2023-03-11T02:55:09;4.43;;;1.10;;
66521;SDS011;53349;53.538;8.584;2023-03-11T02:57:35;2.65;;;0.70;;
66521;SDS011;53349;53.538;8.584;2023-03-11T03:00:00;2.67;;;0.90;;
66521;SDS011;53349;53.538;8.584;2023-03-11T03:02:26;3.40;;;0.90;;
66521;SDS011;53349;53.538;8.584;2023-03-11T03:04:51;3.83;;;0.90;;
66521;SDS011;53349;53.538;8.584;2023-03-11T03:07:16;3.93;;;0.70;;
66521;SDS011;53349;53.538;8.584;2023-03-11T03:09:42;2.80;;;0.80;;
66521;SDS011;53349;53.538;8.584;2023-03-11T03:12:07;3.87;;;0.73;;
66521;SDS011;53349;53.538;8.584;2023-03-11T03:14:34;3.55;;;0.70;;
66521;SDS011;53349;53.538;8.584;2023-03-11T03:17:01;5.80;;;0.80;;
66521;SDS011;53349;53.538;8.584;2023-03-11T03:19:26;2.20;;;0.70;;
66521;SDS011;53349;53.538;8.584;2023-03-11T03:21:52;3.72;;;0.73;;
66521;SDS011;53349;53.538;8.584;2023-03-11T03:24:19;2.38;;;0.70;;
66521;SDS011;53349;53.538;8.584;2023-03-11T03:26:45;4.00;;;0.80;;
66521;SDS011;53349;53.538;8.584;2023-03-11T03:29:11;3.50;;;0.90;;
66521;SDS011;53349;53.538;8.584;2023-03-11T03:31:37;3.37;;;0.87;;
66521;SDS011;53349;53.538;8.584;2023-03-11T03:34:04;3.17;;;0.77;;
66521;SDS011;53349;53.538;8.584;2023-03-11T03:36:29;4.37;;;0.90;;
66521;SDS011;53349;53.538;8.584;2023-03-11T03:38:56;4.63;;;0.90;;
66521;SDS011;53349;53.538;8.584;2023-03-11T03:41:35;8.93;;;1.15;;
66521;SDS011;53349;53.538;8.584;2023-03-11T03:44:08;3.05;;;1.10;;
66521;SDS011;53349;53.538;8.584;2023-03-11T03:46:37;3.50;;;0.98;;
66521;SDS011;53349;53.538;8.584;2023-03-11T03:49:03;4.30;;;1.00;;
66521;SDS011;53349;53.538;8.584;2023-03-11T03:51:28;4.27;;;0.97;;
66521;SDS011;53349;53.538;8.584;2023-03-11T03:53:53;3.47;;;0.97;;
66521;SDS011;53349;53.538;8.584;2023-03-11T03:56:19;5.97;;;1.37;;
66521;SDS011;53349;53.538;8.584;2023-03-11T03:58:44;3.28;;;1.33;;
66521;SDS011;53349;53.538;8.584;2023-03-11T04:01:10;6.67;;;1.30;;
66521;SDS011;53349;53.538;8.584;2023-03-11T04:03:36;7.40;;;1.77;;
66521;SDS011;53349;53.538;8.584;2023-03-11T04:06:21;6.18;;;1.70;;
66521;SDS011;53349;53.538;8.584;2023-03-11T04:08:50;5.43;;;1.98;;
66521;SDS011;53349;53.538;8.584;2023-03-11T04:11:17;7.38;;;2.10;;
66521;SDS011;53349;53.538;8.584;2023-03-11T04:13:43;6.03;;;2.20;;
66521;SDS011;53349;53.538;8.584;2023-03-11T04:16:09;6.50;;;2.38;;
66521;SDS011;53349;53.538;8.584;2023-03-11T04:18:41;6.22;;;2.22;;
66521;SDS011;53349;53.538;8.584;2023-03-11T04:21:06;8.40;;;2.73;;
66521;SDS011;53349;53.538;8.584;2023-03-11T04:23:34;6.70;;;2.60;;
66521;SDS011;53349;53.538;8.584;2023-03-11T04:25:59;7.32;;;2.78;;
66521;SDS011;53349;53.538;8.584;2023-03-11T04:28:25;9.45;;;2.47;;
66521;SDS011;53349;53.538;8.584;2023-03-11T04:30:51;10.63;;;3.00;;
66521;SDS011;53349;53.538;8.584;2023-03-11T04:33:16;7.33;;;2.47;;
66521;SDS011;53349;53.538;8.584;2023-03-11T04:35:41;6.33;;;2.63;;
66521;SDS011;53349;53.538;8.584;2023-03-11T04:38:09;5.93;;;2.47;;
66521;SDS011;53349;53.538;8.584;2023-03-11T04:40:35;5.85;;;2.42;;
66521;SDS011;53349;53.538;8.584;2023-03-11T04:43:02;8.03;;;2.70;;
66521;SDS011;53349;53.538;8.584;2023-03-11T04:45:29;7.68;;;2.72;;
66521;SDS011;53349;53.538;8.584;2023-03-11T04:47:57;8.43;;;2.78;;
66521;SDS011;53349;53.538;8.584;2023-03-11T04:50:23;8.50;;;2.53;;
66521;SDS011;53349;53.538;8.584;2023-03-11T04:52:48;8.02;;;2.65;;
66521;SDS011;53349;53.538;8.584;2023-03-11T04:55:16;13.70;;;3.05;;
66521;SDS011;53349;53.538;8.584;2023-03-11T04:57:41;10.13;;;2.70;;
66521;SDS011;53349;53.538;8.584;2023-03-11T05:00:09;8.82;;;2.47;;
66521;SDS011;53349;53.538;8.584;2023-03-11T05:02:36;8.48;;;2.40;;
66521;SDS011;53349;53.538;8.584;2023-03-11T05:05:02;7.05;;;2.50;;
66521;SDS011;53349;53.538;8.584;2023-03-11T05:07:29;6.88;;;2.42;;
66521;SDS011;53349;53.538;8.584;2023-03-11T05:09:55;8.30;;;2.40;;
66521;SDS011;53349;53.538;8.584;2023-03-11T05:12:21;7.17;;;2.30;;
66521;SDS011;53349;53.538;8.584;2023-03-11T05:14:46;8.80;;;2.67;;
66521;SDS011;53349;53.538;8.584;2023-03-11T05:17:11;5.60;;;1.83;;
66521;SDS011;53349;53.538;8.584;2023-03-11T05:19:37;8.68;;;2.10;;
66521;SDS011;53349;53.538;8.584;2023-03-11T05:22:03;6.00;;;2.40;;
66521;SDS011;53349;53.538;8.584;2023-03-11T05:24:28;7.68;;;2.17;;
66521;SDS011;53349;53.538;8.584;2023-03-11T05:26:54;8.77;;;2.00;;
66521;SDS011;53349;53.538;8.584;2023-03-11T05:29:20;4.97;;;1.80;;
66521;SDS011;53349;53.538;8.584;2023-03-11T05:31:48;5.82;;;1.83;;
66521;SDS011;53349;53.538;8.584;2023-03-11T05:34:14;6.80;;;2.13;;
66521;SDS011;53349;53.538;8.584;2023-03-11T05:36:41;4.97;;;1.95;;
66521;SDS011;53349;53.538;8.584;2023-03-11T05:39:07;8.32;;;1.70;;
66521;SDS011;53349;53.538;8.584;2023-03-11T05:41:33;5.33;;;1.93;;
66521;SDS011;53349;53.538;8.584;2023-03-11T05:43:59;5.43;;;1.95;;
66521;SDS011;53349;53.538;8.584;2023-03-11T05:46:25;9.40;;;1.87;;
66521;SDS011;53349;53.538;8.584;2023-03-11T05:48:50;5.93;;;1.88;;
66521;SDS011;53349;53.538;8.584;2023-03-11T05:51:17;6.18;;;1.88;;
66521;SDS011;53349;53.538;8.584;2023-03-11T05:53:43;6.60;;;1.70;;
66521;SDS011;53349;53.538;8.584;2023-03-11T05:56:12;8.77;;;1.42;;
66521;SDS011;53349;53.538;8.584;2023-03-11T05:58:42;5.78;;;1.17;;
66521;SDS011;53349;53.538;8.584;2023-03-11T06:01:09;4.72;;;1.30;;
66521;SDS011;53349;53.538;8.584;2023-03-11T06:03:36;4.38;;;1.13;;
66521;SDS011;53349;53.538;8.584;2023-03-11T06:06:04;6.43;;;1.30;;
66521;SDS011;53349;53.538;8.584;2023-03-11T06:08:32;7.75;;;1.60;;
66521;SDS011;53349;53.538;8.584;2023-03-11T06:11:01;4.32;;;1.20;;
66521;SDS011;53349;53.538;8.584;2023-03-11T06:13:27;4.50;;;1.10;;
66521;SDS011;53349;53.538;8.584;2023-03-11T06:15:54;5.00;;;1.27;;
66521;SDS011;53349;53.538;8.584;2023-03-11T06:18:19;5.30;;;1.00;;
66521;SDS011;53349;53.538;8.584;2023-03-11T06:20:45;3.43;;;1.10;;
66521;SDS011;53349;53.538;8.584;2023-03-11T06:23:11;7.53;;;0.90;;
66521;SDS011;53349;53.538;8.584;2023-03-11T06:25:36;12.13;;;4.43;;
66521;SDS011;53349;53.538;8.584;2023-03-11T06:28:02;5.80;;;0.97;;
66521;SDS011;53349;53.538;8.584;2023-03-11T06:30:29;3.20;;;1.10;;
66521;SDS011;53349;53.538;8.584;2023-03-11T06:32:54;3.53;;;1.23;;
66521;SDS011;53349;53.538;8.584;2023-03-11T06:35:20;4.72;;;1.08;;
66521;SDS011;53349;53.538;8.584;2023-03-11T06:37:45;4.50;;;0.80;;
66521;SDS011;53349;53.538;8.584;2023-03-11T06:40:13;4.63;;;0.80;;
66521;SDS011;53349;53.538;8.584;2023-03-11T06:42:40;4.10;;;0.90;;
66521;SDS011;53349;53.538;8.584;2023-03-11T06:45:05;5.75;;;1.05;;
66521;SDS011;53349;53.538;8.584;2023-03-11T06:47:32;3.95;;;1.17;;
66521;SDS011;53349;53.538;8.584;2023-03-11T06:49:59;3.33;;;0.88;;
66521;SDS011;53349;53.538;8.584;2023-03-11T06:52:28;4.53;;;0.93;;
66521;SDS011;53349;53.538;8.584;2023-03-11T06:54:53;5.03;;;1.00;;
66521;SDS011;53349;53.538;8.584;2023-03-11T06:57:18;5.90;;;1.00;;
66521;SDS011;53349;53.538;8.584;2023-03-11T06:59:44;3.47;;;0.80;;
66521;SDS011;53349;53.538;8.584;2023-03-11T07:02:11;2.40;;;0.80;;
66521;SDS011;53349;53.538;8.584;2023-03-11T07:04:37;5.40;;;0.90;;
66521;SDS011;53349;53.538;8.584;2023-03-11T07:07:03;2.60;;;0.70;;
66521;SDS011;53349;53.538;8.584;2023-03-11T07:09:29;3.35;;;0.70;;
66521;SDS011;53349;53.538;8.584;2023-03-11T07:11:56;3.00;;;0.70;;
66521;SDS011;53349;53.538;8.584;2023-03-11T07:14:21;4.63;;;1.20;;
66521;SDS011;53349;53.538;8.584;2023-03-11T07:16:47;3.30;;;0.67;;
66521;SDS011;53349;53.538;8.584;2023-03-11T07:19:12;3.27;;;0.80;;
66521;SDS011;53349;53.538;8.584;2023-03-11T07:21:38;3.63;;;1.00;;
66521;SDS011;53349;53.538;8.584;2023-03-11T07:24:04;4.93;;;0.90;;
66521;SDS011;53349;53.538;8.584;2023-03-11T07:26:31;4.83;;;1.10;;
66521;SDS011;53349;53.538;8.584;2023-03-11T07:28:57;6.00;;;0.90;;
66521;SDS011;53349;53.538;8.584;2023-03-11T07:31:24;4.53;;;1.08;;
66521;SDS011;53349;53.538;8.584;2023-03-11T07:33:51;6.20;;;1.00;;
66521;SDS011;53349;53.538;8.584;2023-03-11T07:36:19;3.28;;;0.88;;
66521;SDS011;53349;53.538;8.584;2023-03-11T07:38:48;6.22;;;1.00;;
66521;SDS011;53349;53.538;8.584;2023-03-11T07:41:19;4.67;;;0.70;;
66521;SDS011;53349;53.538;8.584;2023-03-11T07:43:45;4.45;;;0.80;;
66521;SDS011;53349;53.538;8.584;2023-03-11T07:46:11;3.53;;;0.80;;
66521;SDS011;53349;53.538;8.584;2023-03-11T07:48:38;3.72;;;0.77;;
66521;SDS011;53349;53.538;8.584;2023-03-11T07:51:05;2.97;;;1.10;;
66521;SDS011;53349;53.538;8.584;2023-03-11T07:53:35;3.63;;;0.70;;
66521;SDS011;53349;53.538;8.584;2023-03-11T07:56:00;3.55;;;0.80;;
66521;SDS011;53349;53.538;8.584;2023-03-11T07:58:28;3.00;;;0.80;;
66521;SDS011;53349;53.538;8.584;2023-03-11T08:00:55;5.33;;;0.83;;
66521;SDS011;53349;53.538;8.584;2023-03-11T08:03:21;3.20;;;1.10;;
66521;SDS011;53349;53.538;8.584;2023-03-11T08:05:47;3.90;;;0.90;;
66521;SDS011;53349;53.538;8.584;2023-03-11T08:08:12;4.17;;;0.90;;
66521;SDS011;53349;53.538;8.584;2023-03-11T08:10:38;6.10;;;1.03;;
66521;SDS011;53349;53.538;8.584;2023-03-11T08:13:03;4.07;;;0.90;;
66521;SDS011;53349;53.538;8.584;2023-03-11T08:15:29;3.57;;;0.80;;
66521;SDS011;53349;53.538;8.584;2023-03-11T08:17:55;3.67;;;0.90;;
66521;SDS011;53349;53.538;8.584;2023-03-11T08:20:20;3.53;;;1.38;;
66521;SDS011;53349;53.538;8.584;2023-03-11T08:22:48;5.43;;;0.90;;
66521;SDS011;53349;53.538;8.584;2023-03-11T08:25:13;4.27;;;0.50;;
66521;SDS011;53349;53.538;8.584;2023-03-11T08:27:40;3.10;;;0.50;;
66521;SDS011;53349;53.538;8.584;2023-03-11T08:30:05;4.53;;;0.80;;
66521;SDS011;53349;53.538;8.584;2023-03-11T08:32:31;3.17;;;0.60;;
66521;SDS011;53349;53.538;8.584;2023-03-11T08:34:57;4.18;;;0.60;;
66521;SDS011;53349;53.538;8.584;2023-03-11T08:37:22;1.97;;;0.50;;
66521;SDS011;53349;53.538;8.584;2023-03-11T08:39:49;2.65;;;0.60;;
66521;SDS011;53349;53.538;8.584;2023-03-11T08:42:15;5.50;;;1.07;;
66521;SDS011;53349;53.538;8.584;2023-03-11T08:44:42;5.72;;;0.80;;
66521;SDS011;53349;53.538;8.584;2023-03-11T08:47:08;2.72;;;0.80;;
66521;SDS011;53349;53.538;8.584;2023-03-11T08:49:36;4.47;;;0.93;;
66521;SDS011;53349;53.538;8.584;2023-03-11T08:52:02;4.43;;;1.00;;
66521;SDS011;53349;53.538;8.584;2023-03-11T08:54:30;4.43;;;0.85;;
66521;SDS011;53349;53.538;8.584;2023-03-11T08:56:56;4.40;;;1.25;;
66521;SDS011;53349;53.538;8.584;2023-03-11T08:59:23;4.03;;;1.10;;
66521;SDS011;53349;53.538;8.584;2023-03-11T09:01:52;4.93;;;1.30;;
66521;SDS011;53349;53.538;8.584;2023-03-11T09:04:18;5.23;;;1.43;;
66521;SDS011;53349;53.538;8.584;2023-03-11T09:06:43;6.07;;;1.50;;
66521;SDS011;53349;53.538;8.584;2023-03-11T09:09:10;5.43;;;1.10;;
66521;SDS011;53349;53.538;8.584;2023-03-11T09:11:36;4.68;;;1.15;;
66521;SDS011;53349;53.538;8.584;2023-03-11T09:14:03;5.20;;;1.20;;
66521;SDS011;53349;53.538;8.584;2023-03-11T09:16:29;6.50;;;1.80;;
66521;SDS011;53349;53.538;8.584;2023-03-11T09:18:54;6.93;;;2.53;;
66521;SDS011;53349;53.538;8.584;2023-03-11T09:21:19;6.07;;;2.05;;
66521;SDS011;53349;53.538;8.584;2023-03-11T09:23:47;7.15;;;2.40;;
66521;SDS011;53349;53.538;8.584;2023-03-11T09:26:14;5.40;;;1.33;;
66521;SDS011;53349;53.538;8.584;2023-03-11T09:28:41;5.20;;;1.63;;
66521;SDS011;53349;53.538;8.584;2023-03-11T09:31:08;6.97;;;1.50;;
66521;SDS011;53349;53.538;8.584;2023-03-11T09:33:37;6.60;;;1.25;;
66521;SDS011;53349;53.538;8.584;2023-03-11T09:36:06;5.93;;;1.30;;
66521;SDS011;53349;53.538;8.584;2023-03-11T09:38:32;5.10;;;1.45;;
66521;SDS011;53349;53.538;8.584;2023-03-11T09:43:34;3.78;;;1.30;;
66521;SDS011;53349;53.538;8.584;2023-03-11T09:52:11;5.65;;;1.30;;
66521;SDS011;53349;53.538;8.584;2023-03-11T09:54:39;4.93;;;1.20;;
66521;SDS011;53349;53.538;8.584;2023-03-11T09:57:08;4.95;;;1.20;;
66521;SDS011;53349;53.538;8.584;2023-03-11T09:59:49;4.93;;;1.17;;
66521;SDS011;53349;53.538;8.584;2023-03-11T10:02:16;6.67;;;1.33;;
66521;SDS011;53349;53.538;8.584;2023-03-11T10:04:46;4.72;;;1.27;;
66521;SDS011;53349;53.538;8.584;2023-03-11T10:07:31;4.93;;;1.30;;
66521;SDS011;53349;53.538;8.584;2023-03-11T10:10:02;7.78;;;1.40;;
66521;SDS011;53349;53.538;8.584;2023-03-11T10:12:33;5.70;;;1.45;;
66521;SDS011;53349;53.538;8.584;2023-03-11T10:20:58;7.43;;;1.90;;
66521;SDS011;53349;53.538;8.584;2023-03-11T10:23:28;7.15;;;1.60;;
66521;SDS011;53349;53.538;8.584;2023-03-11T10:26:20;6.80;;;1.98;;
66521;SDS011;53349;53.538;8.584;2023-03-11T10:29:09;4.53;;;1.40;;
66521;SDS011;53349;53.538;8.584;2023-03-11T10:40:49;6.40;;;1.27;;
66521;SDS011;53349;53.538;8.584;2023-03-11T10:43:18;4.15;;;1.30;;
66521;SDS011;53349;53.538;8.584;2023-03-11T10:45:50;4.93;;;1.00;;
66521;SDS011;53349;53.538;8.584;2023-03-11T10:48:18;14.45;;;5.72;;
66521;SDS011;53349;53.538;8.584;2023-03-11T10:50:53;12.57;;;4.75;;
66521;SDS011;53349;53.538;8.584;2023-03-11T10:53:26;12.20;;;5.07;;
66521;SDS011;53349;53.538;8.584;2023-03-11T10:55:52;13.50;;;6.07;;
66521;SDS011;53349;53.538;8.584;2023-03-11T10:58:23;12.30;;;5.30;;
66521;SDS011;53349;53.538;8.584;2023-03-11T11:03:40;8.27;;;2.80;;
66521;SDS011;53349;53.538;8.584;2023-03-11T11:09:03;9.75;;;3.15;;
66521;SDS011;53349;53.538;8.584;2023-03-11T11:11:30;9.63;;;2.50;;
66521;SDS011;53349;53.538;8.584;2023-03-11T11:14:00;10.40;;;2.67;;
66521;SDS011;53349;53.538;8.584;2023-03-11T11:16:26;7.27;;;2.60;;
66521;SDS011;53349;53.538;8.584;2023-03-11T11:19:11;11.75;;;2.80;;
66521;SDS011;53349;53.538;8.584;2023-03-11T11:21:41;5.38;;;2.15;;
66521;SDS011;53349;53.538;8.584;2023-03-11T11:30:01;6.50;;;2.10;;
66521;SDS011;53349;53.538;8.584;2023-03-11T11:32:34;6.70;;;1.70;;
66521;SDS011;53349;53.538;8.584;2023-03-11T11:35:15;4.32;;;1.23;;
66521;SDS011;53349;53.538;8.584;2023-03-11T11:37:43;4.43;;;1.10;;
66521;SDS011;53349;53.538;8.584;2023-03-11T11:42:58;5.85;;;1.38;;
66521;SDS011;53349;53.538;8.584;2023-03-11T11:45:46;5.63;;;1.20;;
66521;SDS011;53349;53.538;8.584;2023-03-11T11:51:35;4.80;;;1.40;;
66521;SDS011;53349;53.538;8.584;2023-03-11T11:56:55;5.90;;;1.40;;
66521;SDS011;53349;53.538;8.584;2023-03-11T11:59:21;6.20;;;1.10;;
66521;SDS011;53349;53.538;8.584;2023-03-11T12:04:42;7.50;;;0.97;;
66521;SDS011;53349;53.538;8.584;2023-03-11T12:12:50;4.85;;;1.20;;
66521;SDS011;53349;53.538;8.584;2023-03-11T12:15:30;6.50;;;0.90;;
66521;SDS011;53349;53.538;8.584;2023-03-11T12:18:03;4.40;;;0.80;;
66521;SDS011;53349;53.538;8.584;2023-03-11T12:20:36;5.63;;;1.00;;
66521;SDS011;53349;53.538;8.584;2023-03-11T12:26:23;5.50;;;0.90;;
66521;SDS011;53349;53.538;8.584;2023-03-11T12:29:53;5.10;;;0.98;;
66521;SDS011;53349;53.538;8.584;2023-03-11T12:31:55;4.90;;;1.10;;
66521;SDS011;53349;53.538;8.584;2023-03-11T12:34:23;6.03;;;1.13;;
66521;SDS011;53349;53.538;8.584;2023-03-11T12:36:48;3.37;;;1.40;;
66521;SDS011;53349;53.538;8.584;2023-03-11T12:39:22;4.50;;;1.00;;
66521;SDS011;53349;53.538;8.584;2023-03-11T12:44:35;5.43;;;1.10;;
66521;SDS011;53349;53.538;8.584;2023-03-11T12:47:03;4.47;;;1.10;;
66521;SDS011;53349;53.538;8.584;2023-03-11T12:49:43;4.10;;;1.00;;
66521;SDS011;53349;53.538;8.584;2023-03-11T12:54:39;3.45;;;1.05;;
66521;SDS011;53349;53.538;8.584;2023-03-11T12:57:33;3.28;;;1.20;;
66521;SDS011;53349;53.538;8.584;2023-03-11T13:00:22;4.35;;;1.02;;
66521;SDS011;53349;53.538;8.584;2023-03-11T13:06:02;6.72;;;1.00;;
66521;SDS011;53349;53.538;8.584;2023-03-11T13:14:17;3.50;;;0.93;;
66521;SDS011;53349;53.538;8.584;2023-03-11T13:19:52;3.60;;;1.10;;
66521;SDS011;53349;53.538;8.584;2023-03-11T13:22:39;6.10;;;1.02;;
66521;SDS011;53349;53.538;8.584;2023-03-11T13:25:29;3.83;;;0.90;;
66521;SDS011;53349;53.538;8.584;2023-03-11T13:27:57;4.35;;;0.90;;
66521;SDS011;53349;53.538;8.584;2023-03-11T13:30:31;6.73;;;1.07;;
66521;SDS011;53349;53.538;8.584;2023-03-11T13:33:14;5.78;;;1.10;;
66521;SDS011;53349;53.538;8.584;2023-03-11T13:35:53;4.18;;;1.10;;
66521;SDS011;53349;53.538;8.584;2023-03-11T13:38:49;2.97;;;1.00;;
66521;SDS011;53349;53.538;8.584;2023-03-11T13:41:39;3.75;;;1.02;;
66521;SDS011;53349;53.538;8.584;2023-03-11T13:46:44;4.65;;;0.80;;
66521;SDS011;53349;53.538;8.584;2023-03-11T13:49:22;3.95;;;1.10;;
66521;SDS011;53349;53.538;8.584;2023-03-11T13:51:52;6.82;;;1.00;;
66521;SDS011;53349;53.538;8.584;2023-03-11T13:54:40;9.48;;;1.13;;
66521;SDS011;53349;53.538;8.584;2023-03-11T13:57:16;4.70;;;1.07;;
66521;SDS011;53349;53.538;8.584;2023-03-11T13:59:56;4.60;;;1.20;;
66521;SDS011;53349;53.538;8.584;2023-03-11T14:02:52;3.30;;;1.60;;
66521;SDS011;53349;53.538;8.584;2023-03-11T14:05:21;10.10;;;1.70;;
66521;SDS011;53349;53.538;8.584;2023-03-11T14:07:51;6.95;;;1.70;;
66521;SDS011;53349;53.538;8.584;2023-03-11T14:10:28;6.80;;;1.50;;
66521;SDS011;53349;53.538;8.584;2023-03-11T14:13:04;5.38;;;1.50;;
66521;SDS011;53349;53.538;8.584;2023-03-11T14:15:41;6.85;;;2.03;;
66521;SDS011;53349;53.538;8.584;2023-03-11T14:21:01;6.28;;;1.90;;
66521;SDS011;53349;53.538;8.584;2023-03-11T14:23:42;4.28;;;1.55;;
66521;SDS011;53349;53.538;8.584;2023-03-11T14:26:22;6.72;;;1.73;;
66521;SDS011;53349;53.538;8.584;2023-03-11T14:28:56;4.13;;;1.60;;
66521;SDS011;53349;53.538;8.584;2023-03-11T14:31:33;6.80;;;1.77;;
66521;SDS011;53349;53.538;8.584;2023-03-11T14:36:47;3.50;;;0.88;;
66521;SDS011;53349;53.538;8.584;2023-03-11T14:41:51;4.93;;;0.80;;
66521;SDS011;53349;53.538;8.584;2023-03-11T14:44:20;5.45;;;0.75;;
66521;SDS011;53349;53.538;8.584;2023-03-11T14:46:48;5.05;;;0.60;;
66521;SDS011;53349;53.538;8.584;2023-03-11T14:49:18;3.95;;;0.55;;
66521;SDS011;53349;53.538;8.584;2023-03-11T14:51:45;3.35;;;0.80;;
66521;SDS011;53349;53.538;8.584;2023-03-11T14:54:18;2.90;;;0.50;;
66521;SDS011;53349;53.538;8.584;2023-03-11T14:56:52;6.55;;;1.13;;
66521;SDS011;53349;53.538;8.584;2023-03-11T14:59:39;5.83;;;1.07;;
66521;SDS011;53349;53.538;8.584;2023-03-11T15:04:56;6.40;;;0.98;;
66521;SDS011;53349;53.538;8.584;2023-03-11T15:07:43;3.70;;;0.93;;
66521;SDS011;53349;53.538;8.584;2023-03-11T15:10:10;10.23;;;0.90;;
66521;SDS011;53349;53.538;8.584;2023-03-11T15:12:38;3.97;;;0.77;;
66521;SDS011;53349;53.538;8.584;2023-03-11T15:17:51;4.30;;;0.55;;
66521;SDS011;53349;53.538;8.584;2023-03-11T15:20:25;2.35;;;0.55;;
66521;SDS011;53349;53.538;8.584;2023-03-11T15:22:56;2.27;;;0.50;;
66521;SDS011;53349;53.538;8.584;2023-03-11T15:25:41;2.70;;;0.50;;
66521;SDS011;53349;53.538;8.584;2023-03-11T15:28:18;6.18;;;0.98;;
66521;SDS011;53349;53.538;8.584;2023-03-11T15:30:45;1.92;;;0.60;;
66521;SDS011;53349;53.538;8.584;2023-03-11T15:33:21;2.38;;;0.45;;
66521;SDS011;53349;53.538;8.584;2023-03-11T15:35:54;2.33;;;0.60;;
66521;SDS011;53349;53.538;8.584;2023-03-11T15:38:21;4.20;;;1.05;;
66521;SDS011;53349;53.538;8.584;2023-03-11T15:40:57;3.97;;;1.17;;
66521;SDS011;53349;53.538;8.584;2023-03-11T15:45:55;3.97;;;0.80;;
66521;SDS011;53349;53.538;8.584;2023-03-11T15:48:21;2.53;;;0.80;;
66521;SDS011;53349;53.538;8.584;2023-03-11T15:50:51;6.72;;;0.80;;
66521;SDS011;53349;53.538;8.584;2023-03-11T15:53:21;4.13;;;0.65;;
66521;SDS011;53349;53.538;8.584;2023-03-11T15:55:50;3.28;;;0.55;;
66521;SDS011;53349;53.538;8.584;2023-03-11T15:58:18;3.47;;;0.70;;
66521;SDS011;53349;53.538;8.584;2023-03-11T16:00:46;4.90;;;0.60;;
66521;SDS011;53349;53.538;8.584;2023-03-11T16:03:15;2.20;;;0.50;;
66521;SDS011;53349;53.538;8.584;2023-03-11T16:05:42;2.55;;;0.50;;
66521;SDS011;53349;53.538;8.584;2023-03-11T16:08:08;3.27;;;0.60;;
66521;SDS011;53349;53.538;8.584;2023-03-11T16:10:33;3.65;;;0.60;;
66521;SDS011;53349;53.538;8.584;2023-03-11T16:12:59;2.43;;;0.50;;
66521;SDS011;53349;53.538;8.584;2023-03-11T16:15:26;4.75;;;0.80;;
66521;SDS011;53349;53.538;8.584;2023-03-11T16:17:55;3.85;;;0.70;;
66521;SDS011;53349;53.538;8.584;2023-03-11T16:20:23;3.30;;;0.98;;
66521;SDS011;53349;53.538;8.584;2023-03-11T16:22:51;2.65;;;0.75;;
66521;SDS011;53349;53.538;8.584;2023-03-11T16:25:22;4.05;;;0.80;;
66521;SDS011;53349;53.538;8.584;2023-03-11T16:28:00;2.90;;;0.50;;
66521;SDS011;53349;53.538;8.584;2023-03-11T16:30:26;3.67;;;0.75;;
66521;SDS011;53349;53.538;8.584;2023-03-11T16:32:55;1.90;;;0.60;;
66521;SDS011;53349;53.538;8.584;2023-03-11T16:35:21;3.53;;;0.60;;
66521;SDS011;53349;53.538;8.584;2023-03-11T16:37:46;5.83;;;0.80;;
66521;SDS011;53349;53.538;8.584;2023-03-11T16:40:19;2.45;;;0.80;;